createdAt,value
2018-08-28T00:00:16.058Z,2.80
2018-08-28T00:02:44.676Z,2.70
2018-08-28T00:05:13.290Z,2.77
2018-08-28T00:07:41.862Z,2.60
2018-08-28T00:10:10.416Z,2.77
2018-08-28T00:12:38.972Z,2.93
2018-08-28T00:15:07.752Z,3.20
2018-08-28T00:17:37.077Z,3.00
2018-08-28T00:20:05.992Z,2.70
2018-08-28T00:22:35.190Z,2.60
2018-08-28T00:25:03.874Z,3.10
2018-08-28T00:27:32.452Z,3.30
2018-08-28T00:30:00.968Z,3.37
2018-08-28T00:32:29.510Z,3.10
2018-08-28T00:34:58.092Z,3.10
2018-08-28T00:37:27.248Z,3.00
2018-08-28T00:39:56.058Z,2.93
2018-08-28T00:42:24.836Z,2.90
2018-08-28T00:44:54.396Z,2.93
2018-08-28T00:47:23.009Z,2.87
2018-08-28T00:49:51.956Z,3.10
2018-08-28T00:52:20.671Z,2.77
2018-08-28T00:54:49.640Z,2.97
2018-08-28T00:57:18.173Z,2.60
2018-08-28T00:59:46.731Z,3.07
2018-08-28T01:02:15.321Z,3.13
2018-08-28T01:04:44.098Z,3.00
2018-08-28T01:07:12.835Z,2.50
2018-08-28T01:09:41.389Z,2.60
2018-08-28T01:12:09.937Z,2.70
2018-08-28T01:14:38.619Z,2.53
2018-08-28T01:17:07.134Z,2.60
2018-08-28T01:19:35.856Z,2.70
2018-08-28T01:22:04.591Z,2.50
2018-08-28T01:24:33.200Z,2.53
2018-08-28T01:27:01.917Z,2.40
2018-08-28T01:29:30.519Z,3.00
2018-08-28T01:31:59.005Z,3.20
2018-08-28T01:34:27.574Z,3.33
2018-08-28T01:36:56.323Z,2.60
2018-08-28T01:39:24.894Z,2.40
2018-08-28T01:41:53.405Z,2.90
2018-08-28T01:44:21.983Z,2.33
2018-08-28T01:46:50.913Z,2.40
2018-08-28T01:49:19.464Z,2.77
2018-08-28T01:51:48.095Z,2.90
2018-08-28T01:54:16.785Z,2.87
2018-08-28T01:56:45.344Z,2.93
2018-08-28T01:59:13.905Z,2.37
2018-08-28T02:01:42.546Z,2.63
2018-08-28T02:04:11.114Z,2.90
2018-08-28T02:06:39.631Z,3.43
2018-08-28T02:09:08.252Z,3.60
2018-08-28T02:11:36.816Z,3.23
2018-08-28T02:14:05.389Z,2.90
2018-08-28T02:16:33.945Z,2.83
2018-08-28T02:19:02.998Z,3.20
2018-08-28T02:21:31.651Z,3.33
2018-08-28T02:24:00.592Z,3.57
2018-08-28T02:26:29.185Z,3.27
2018-08-28T02:28:57.712Z,3.13
2018-08-28T02:31:26.334Z,2.50
2018-08-28T02:33:55.227Z,3.30
2018-08-28T02:36:23.994Z,2.47
2018-08-28T02:38:52.488Z,2.77
2018-08-28T02:41:21.206Z,2.90
2018-08-28T02:43:49.864Z,3.10
2018-08-28T02:46:18.552Z,3.13
2018-08-28T02:48:47.102Z,2.90
2018-08-28T02:51:16.101Z,2.50
2018-08-28T02:53:44.649Z,2.60
2018-08-28T02:56:13.454Z,2.77
2018-08-28T02:58:41.909Z,2.90
2018-08-28T03:01:10.651Z,2.70
2018-08-28T03:03:39.203Z,2.60
2018-08-28T03:06:07.915Z,2.67
2018-08-28T03:08:36.671Z,2.93
2018-08-28T03:11:05.307Z,3.07
2018-08-28T03:13:34.013Z,2.77
2018-08-28T03:16:03.100Z,2.60
2018-08-28T03:18:31.947Z,2.70
2018-08-28T03:21:00.646Z,3.07
2018-08-28T03:23:29.223Z,2.80
2018-08-28T03:25:57.799Z,2.70
2018-08-28T03:28:26.621Z,2.70
2018-08-28T03:30:55.211Z,2.77
2018-08-28T03:33:23.809Z,2.53
2018-08-28T03:35:52.561Z,3.00
2018-08-28T03:38:21.107Z,2.87
2018-08-28T03:40:49.953Z,2.70
2018-08-28T03:43:19.231Z,3.30
2018-08-28T03:45:48.354Z,3.00
2018-08-28T03:48:16.965Z,2.80
2018-08-28T03:50:46.615Z,3.20
2018-08-28T03:53:15.641Z,3.13
2018-08-28T03:55:44.206Z,3.07
2018-08-28T03:58:14.085Z,2.77
2018-08-28T04:00:42.901Z,3.00
2018-08-28T04:03:12.021Z,2.93
2018-08-28T04:05:40.874Z,2.87
2018-08-28T04:08:09.414Z,3.30
2018-08-28T04:10:38.270Z,2.93
2018-08-28T04:13:07.244Z,3.43
2018-08-28T04:15:36.529Z,3.50
2018-08-28T04:18:05.299Z,2.40
2018-08-28T04:20:33.847Z,2.93
2018-08-28T04:23:04.414Z,3.07
2018-08-28T04:25:32.955Z,3.03
2018-08-28T04:28:01.626Z,2.80
2018-08-28T04:30:30.249Z,3.17
2018-08-28T04:32:59.099Z,2.83
2018-08-28T04:35:27.699Z,3.00
2018-08-28T04:37:56.424Z,3.53
2018-08-28T04:40:25.233Z,3.63
2018-08-28T04:42:54.248Z,3.10
2018-08-28T04:45:23.361Z,3.10
2018-08-28T04:47:51.941Z,3.27
2018-08-28T04:50:20.687Z,2.70
2018-08-28T04:52:49.293Z,3.10
2018-08-28T04:55:18.602Z,2.80
2018-08-28T04:57:47.268Z,3.13
2018-08-28T05:00:16.220Z,2.77
2018-08-28T05:02:45.115Z,2.60
2018-08-28T05:05:13.992Z,2.63
2018-08-28T05:07:42.866Z,3.07
2018-08-28T05:10:11.595Z,3.60
2018-08-28T05:12:40.255Z,3.63
2018-08-28T05:15:09.535Z,3.30
2018-08-28T05:17:38.317Z,3.50
2018-08-28T05:20:07.378Z,3.80
2018-08-28T05:22:36.285Z,3.53
2018-08-28T05:25:05.013Z,3.77
2018-08-28T05:27:33.851Z,4.47
2018-08-28T05:30:04.176Z,4.43
2018-08-28T05:32:32.733Z,4.00
2018-08-28T05:35:01.389Z,4.20
2018-08-28T05:37:29.997Z,4.17
2018-08-28T05:39:58.848Z,4.93
2018-08-28T05:42:27.474Z,5.47
2018-08-28T05:44:56.253Z,5.40
2018-08-28T05:47:24.822Z,4.47
2018-08-28T05:49:53.619Z,4.73
2018-08-28T05:52:22.597Z,4.37
2018-08-28T05:54:51.291Z,4.67
2018-08-28T05:57:20.062Z,4.97
2018-08-28T05:59:48.638Z,5.07
2018-08-28T06:02:17.639Z,5.07
2018-08-28T06:04:46.334Z,4.90
2018-08-28T06:07:14.901Z,4.70
2018-08-28T06:09:44.568Z,4.60
2018-08-28T06:12:13.149Z,4.40
2018-08-28T06:14:42.851Z,4.43
2018-08-28T06:17:11.575Z,4.30
2018-08-28T06:19:41.210Z,4.70
2018-08-28T06:22:10.175Z,4.57
2018-08-28T06:24:39.005Z,4.20
2018-08-28T06:27:07.783Z,4.30
2018-08-28T06:29:36.509Z,4.83
2018-08-28T06:32:05.481Z,4.23
2018-08-28T06:34:34.273Z,4.17
2018-08-28T06:37:03.201Z,4.23
2018-08-28T06:39:31.792Z,4.27
2018-08-28T06:42:00.426Z,4.20
2018-08-28T06:44:29.444Z,4.10
2018-08-28T06:46:58.062Z,4.40
2018-08-28T06:49:27.486Z,4.20
2018-08-28T06:51:56.375Z,4.50
2018-08-28T06:54:25.006Z,4.00
2018-08-28T06:56:53.971Z,4.13
2018-08-28T06:59:22.689Z,4.30
2018-08-28T07:01:51.272Z,4.30
2018-08-28T07:04:19.856Z,4.63
2018-08-28T07:06:48.491Z,4.83
2018-08-28T07:09:17.188Z,4.47
2018-08-28T07:11:45.881Z,4.37
2018-08-28T07:14:15.076Z,4.50
2018-08-28T07:16:43.703Z,4.73
2018-08-28T07:19:12.504Z,4.20
2018-08-28T07:21:41.941Z,5.40
2018-08-28T07:24:11.148Z,5.10
2018-08-28T07:26:39.980Z,5.50
2018-08-28T07:29:08.817Z,5.50
2018-08-28T07:31:37.510Z,4.87
2018-08-28T07:34:06.180Z,5.50
2018-08-28T07:36:35.324Z,5.17
2018-08-28T07:39:06.363Z,5.40
2018-08-28T07:41:35.320Z,5.83
2018-08-28T07:44:04.167Z,5.37
2018-08-28T07:46:32.829Z,5.23
2018-08-28T07:49:01.825Z,5.40
2018-08-28T07:51:30.567Z,5.97
2018-08-28T07:53:59.787Z,5.40
2018-08-28T07:56:28.455Z,4.90
2018-08-28T07:58:57.884Z,5.70
2018-08-28T08:01:26.771Z,5.10
2018-08-28T08:03:55.446Z,5.13
2018-08-28T08:06:24.290Z,5.00
2018-08-28T08:08:54.174Z,5.10
2018-08-28T08:11:22.682Z,5.10
2018-08-28T08:13:51.361Z,5.13
2018-08-28T08:16:20.008Z,5.80
2018-08-28T08:18:48.580Z,5.77
2018-08-28T08:21:17.337Z,5.90
2018-08-28T08:23:46.300Z,5.20
2018-08-28T08:26:15.107Z,5.10
2018-08-28T08:28:43.720Z,5.13
2018-08-28T08:31:12.940Z,5.87
2018-08-28T08:33:41.977Z,6.50
2018-08-28T08:36:10.604Z,6.67
2018-08-28T08:38:39.307Z,5.60
2018-08-28T08:41:08.291Z,4.80
2018-08-28T08:43:36.873Z,4.43
2018-08-28T08:46:05.719Z,4.60
2018-08-28T08:48:34.651Z,4.47
2018-08-28T08:51:03.589Z,4.47
2018-08-28T08:53:32.329Z,4.80
2018-08-28T08:56:01.631Z,4.77
2018-08-28T08:58:30.979Z,5.27
2018-08-28T09:01:00.666Z,5.00
2018-08-28T09:03:29.886Z,4.90
2018-08-28T09:05:58.945Z,4.40
2018-08-28T09:08:27.701Z,4.53
2018-08-28T09:10:56.313Z,4.60
2018-08-28T09:13:25.246Z,4.27
2018-08-28T09:15:54.413Z,3.90
2018-08-28T09:18:23.265Z,4.03
2018-08-28T09:20:52.151Z,4.20
2018-08-28T09:23:20.698Z,3.87
2018-08-28T09:25:49.617Z,4.37
2018-08-28T09:28:18.476Z,4.60
2018-08-28T09:30:47.215Z,4.63
2018-08-28T09:33:15.911Z,5.10
2018-08-28T09:35:44.448Z,4.40
2018-08-28T09:38:13.068Z,4.00
2018-08-28T09:40:41.684Z,3.67
2018-08-28T09:43:10.274Z,3.53
2018-08-28T09:45:39.012Z,3.47
2018-08-28T09:48:07.702Z,3.40
2018-08-28T09:50:37.000Z,3.60
2018-08-28T09:53:06.127Z,3.73
2018-08-28T09:55:35.003Z,3.30
2018-08-28T09:58:03.663Z,3.50
2018-08-28T10:00:36.472Z,3.70
2018-08-28T10:03:05.687Z,3.30
2018-08-28T10:05:34.522Z,2.97
2018-08-28T10:08:03.113Z,3.13
2018-08-28T10:10:31.981Z,2.53
2018-08-28T10:13:00.661Z,2.93
2018-08-28T10:15:30.278Z,2.60
2018-08-28T10:17:58.916Z,2.30
2018-08-28T10:20:27.536Z,2.50
2018-08-28T10:22:56.641Z,2.37
2018-08-28T10:25:25.335Z,2.77
2018-08-28T10:27:53.888Z,2.73
2018-08-28T10:30:22.519Z,3.10
2018-08-28T10:32:51.084Z,3.00
2018-08-28T10:35:19.671Z,2.47
2018-08-28T10:37:48.374Z,2.20
2018-08-28T10:40:17.296Z,2.17
2018-08-28T10:42:46.092Z,1.80
2018-08-28T10:45:14.883Z,1.80
2018-08-28T10:47:43.830Z,2.20
2018-08-28T10:50:12.545Z,1.80
2018-08-28T10:52:41.179Z,1.87
2018-08-28T10:55:09.907Z,1.70
2018-08-28T10:57:39.046Z,2.00
2018-08-28T11:00:07.720Z,2.07
2018-08-28T11:02:36.503Z,2.90
2018-08-28T11:05:05.485Z,2.70
2018-08-28T11:07:34.044Z,2.70
2018-08-28T11:10:02.870Z,2.40
2018-08-28T11:12:31.510Z,2.50
2018-08-28T11:15:00.096Z,2.67
2018-08-28T11:17:28.985Z,2.20
2018-08-28T11:19:57.977Z,2.40
2018-08-28T11:22:26.922Z,2.60
2018-08-28T11:24:55.816Z,2.97
2018-08-28T11:27:24.349Z,2.63
2018-08-28T11:29:52.977Z,2.60
2018-08-28T11:32:21.790Z,2.47
2018-08-28T11:34:51.449Z,2.20
2018-08-28T11:37:20.331Z,2.67
2018-08-28T11:39:49.502Z,2.40
2018-08-28T11:42:18.291Z,2.57
2018-08-28T11:44:47.121Z,2.50
2018-08-28T11:47:16.183Z,2.17
2018-08-28T11:49:44.685Z,2.40
2018-08-28T11:52:13.834Z,2.50
2018-08-28T11:54:42.640Z,2.20
2018-08-28T11:57:11.323Z,2.40
2018-08-28T11:59:39.900Z,2.30
2018-08-28T12:02:09.348Z,2.37
2018-08-28T12:04:37.824Z,2.63
2018-08-28T12:07:06.850Z,2.70
2018-08-28T12:09:35.866Z,2.80
2018-08-28T12:12:04.476Z,2.70
2018-08-28T12:14:33.122Z,2.70
2018-08-28T12:17:01.779Z,2.60
2018-08-28T12:19:30.722Z,2.60
2018-08-28T12:21:59.716Z,2.40
2018-08-28T12:24:28.477Z,2.50
2018-08-28T12:26:57.087Z,2.90
2018-08-28T12:29:26.662Z,3.00
2018-08-28T12:31:55.399Z,2.80
2018-08-28T12:34:23.943Z,2.83
2018-08-28T12:36:52.657Z,3.00
2018-08-28T12:39:21.198Z,2.80
2018-08-28T12:41:50.417Z,2.50
2018-08-28T12:44:19.126Z,2.23
2018-08-28T12:46:47.955Z,2.40
2018-08-28T12:49:16.624Z,1.90
2018-08-28T12:51:45.227Z,1.90
2018-08-28T12:54:13.888Z,2.00
2018-08-28T12:56:42.720Z,2.03
2018-08-28T12:59:11.651Z,2.00
2018-08-28T13:01:40.337Z,1.83
2018-08-28T13:04:08.950Z,1.80
2018-08-28T13:06:37.581Z,2.00
2018-08-28T13:09:07.257Z,2.00
2018-08-28T13:11:36.569Z,1.67
2018-08-28T13:14:05.150Z,1.90
2018-08-28T13:16:33.900Z,1.90
2018-08-28T13:19:02.730Z,2.00
2018-08-28T13:21:31.737Z,2.00
2018-08-28T13:24:01.033Z,2.00
2018-08-28T13:26:29.703Z,2.00
2018-08-28T13:28:58.291Z,1.80
2018-08-28T13:31:26.903Z,2.00
2018-08-28T13:33:55.866Z,2.17
2018-08-28T13:36:24.416Z,2.00
2018-08-28T13:38:53.300Z,2.20
2018-08-28T13:41:21.987Z,2.13
2018-08-28T13:43:50.630Z,2.30
2018-08-28T13:46:19.322Z,2.30
2018-08-28T13:48:47.937Z,2.27
2018-08-28T13:51:16.802Z,1.90
2018-08-28T13:53:45.874Z,1.80
2018-08-28T13:56:14.827Z,1.80
2018-08-28T13:58:43.506Z,1.80
2018-08-28T14:01:12.503Z,1.80
2018-08-28T14:03:41.338Z,1.63
2018-08-28T14:06:09.900Z,1.50
2018-08-28T14:08:38.610Z,1.47
2018-08-28T14:11:07.511Z,1.70
2018-08-28T14:13:36.863Z,1.90
2018-08-28T14:16:05.425Z,1.90
2018-08-28T14:18:35.783Z,1.90
2018-08-28T14:21:04.663Z,1.80
2018-08-28T14:23:33.269Z,1.70
2018-08-28T14:26:02.206Z,1.90
2018-08-28T14:28:30.913Z,1.80
2018-08-28T14:30:59.724Z,1.97
2018-08-28T14:33:28.454Z,1.80
2018-08-28T14:35:57.101Z,2.03
2018-08-28T14:38:25.671Z,2.00
2018-08-28T14:40:55.366Z,2.30
2018-08-28T14:43:25.328Z,2.63
2018-08-28T14:45:54.220Z,2.30
2018-08-28T14:48:23.017Z,2.70
2018-08-28T14:50:51.620Z,2.87
2018-08-28T14:53:20.526Z,2.70
2018-08-28T14:55:50.110Z,2.80
2018-08-28T14:58:18.711Z,2.60
2018-08-28T15:00:47.500Z,2.20
2018-08-28T15:03:16.282Z,2.40
2018-08-28T15:05:45.196Z,2.30
2018-08-28T15:08:14.202Z,2.50
2018-08-28T15:10:43.551Z,2.43
2018-08-28T15:13:12.112Z,2.63
2018-08-28T15:15:40.724Z,2.70
2018-08-28T15:18:09.852Z,2.50
2018-08-28T15:20:38.553Z,2.00
2018-08-28T15:23:07.424Z,2.30
2018-08-28T15:25:36.054Z,2.50
2018-08-28T15:28:04.917Z,1.93
2018-08-28T15:30:33.842Z,2.40
2018-08-28T15:33:02.729Z,2.63
2018-08-28T15:35:31.462Z,2.60
2018-08-28T15:38:00.337Z,2.93
2018-08-28T15:40:28.958Z,2.60
2018-08-28T15:42:57.906Z,2.60
2018-08-28T15:45:26.537Z,2.77
2018-08-28T15:47:55.485Z,2.80
2018-08-28T15:50:25.064Z,3.20
2018-08-28T15:52:54.188Z,2.67
2018-08-28T15:55:23.063Z,2.50
2018-08-28T15:57:51.900Z,2.73
2018-08-28T16:00:20.695Z,2.40
2018-08-28T16:02:49.253Z,2.60
2018-08-28T16:05:17.809Z,2.80
2018-08-28T16:07:47.380Z,2.90
2018-08-28T16:10:17.003Z,2.50
2018-08-28T16:12:45.856Z,2.50
2018-08-28T16:15:14.522Z,2.80
2018-08-28T16:17:43.303Z,2.10
2018-08-28T16:20:12.005Z,2.60
2018-08-28T16:22:45.588Z,2.70
2018-08-28T16:25:14.180Z,2.50
2018-08-28T16:27:43.074Z,2.60
2018-08-28T16:30:11.673Z,2.77
2018-08-28T16:32:40.225Z,2.37
2018-08-28T16:35:09.665Z,2.30
2018-08-28T16:37:38.226Z,2.40
2018-08-28T16:40:06.897Z,2.60
2018-08-28T16:42:35.871Z,2.47
2018-08-28T16:45:04.461Z,2.50
2018-08-28T16:47:33.234Z,2.30
2018-08-28T16:50:02.284Z,2.50
2018-08-28T16:52:30.982Z,2.07
2018-08-28T16:54:59.580Z,2.60
2018-08-28T16:57:28.884Z,2.57
2018-08-28T16:59:57.871Z,2.40
2018-08-28T17:02:26.452Z,2.47
2018-08-28T17:04:55.624Z,2.50
2018-08-28T17:07:24.413Z,2.10
2018-08-28T17:09:53.268Z,2.33
2018-08-28T17:12:22.059Z,2.10
2018-08-28T17:14:50.909Z,2.10
2018-08-28T17:17:20.136Z,1.80
2018-08-28T17:19:48.819Z,6.67
2018-08-28T17:22:17.344Z,3.60
2018-08-28T17:24:46.288Z,2.70
2018-08-28T17:27:14.999Z,2.23
2018-08-28T17:29:43.626Z,1.73
2018-08-28T17:32:12.991Z,1.90
2018-08-28T17:34:41.672Z,2.20
2018-08-28T17:37:10.598Z,2.20
2018-08-28T17:39:39.272Z,2.20
2018-08-28T17:42:07.840Z,1.97
2018-08-28T17:44:36.541Z,2.00
2018-08-28T17:47:05.471Z,1.67
2018-08-28T17:49:34.224Z,2.37
2018-08-28T17:52:02.788Z,1.83
2018-08-28T17:54:31.403Z,2.23
2018-08-28T17:57:01.097Z,1.80
2018-08-28T17:59:29.832Z,2.13
2018-08-28T18:01:58.578Z,1.70
2018-08-28T18:04:27.366Z,1.80
2018-08-28T18:06:56.400Z,1.73
2018-08-28T18:09:25.018Z,2.30
2018-08-28T18:11:54.362Z,1.90
2018-08-28T18:14:22.928Z,2.10
2018-08-28T18:16:51.510Z,2.20
2018-08-28T18:19:20.132Z,1.97
2018-08-28T18:21:48.756Z,2.50
2018-08-28T18:24:17.448Z,2.07
2018-08-28T18:26:46.022Z,2.10
2018-08-28T18:29:14.603Z,2.30
2018-08-28T18:31:43.600Z,2.27
2018-08-28T18:34:13.633Z,2.20
2018-08-28T18:36:42.337Z,2.20
2018-08-28T18:39:10.977Z,2.17
2018-08-28T18:41:39.775Z,2.10
2018-08-28T18:44:08.736Z,2.33
2018-08-28T18:46:37.506Z,2.30
2018-08-28T18:49:06.153Z,2.40
2018-08-28T18:51:35.065Z,2.33
2018-08-28T18:54:03.824Z,2.50
2018-08-28T18:56:33.812Z,2.30
2018-08-28T18:59:02.721Z,2.70
2018-08-28T19:01:31.289Z,2.60
2018-08-28T19:03:59.814Z,2.60
2018-08-28T19:06:29.278Z,2.40
2018-08-28T19:08:58.283Z,2.70
2018-08-28T19:11:26.663Z,2.70
2018-08-28T19:13:55.506Z,2.67
2018-08-28T19:16:24.100Z,2.80
2018-08-28T19:18:52.682Z,2.80
2018-08-28T19:21:21.192Z,2.57
2018-08-28T19:23:49.744Z,3.13
2018-08-28T19:26:18.274Z,2.77
2018-08-28T19:28:46.826Z,3.07
2018-08-28T19:31:15.406Z,3.23
2018-08-28T19:33:44.284Z,3.20
2018-08-28T19:36:12.836Z,3.00
2018-08-28T19:38:41.736Z,3.10
2018-08-28T19:41:10.401Z,3.23
2018-08-28T19:43:39.092Z,3.33
2018-08-28T19:46:07.805Z,3.60
2018-08-28T19:48:37.023Z,3.60
2018-08-28T19:51:05.601Z,3.00
2018-08-28T19:53:34.398Z,3.10
2018-08-28T19:56:03.158Z,3.77
2018-08-28T19:58:32.029Z,3.50
2018-08-28T20:01:02.261Z,3.50
2018-08-28T20:03:31.097Z,3.90
2018-08-28T20:05:59.656Z,3.60
2018-08-28T20:08:28.360Z,3.30
2018-08-28T20:10:57.379Z,3.77
2018-08-28T20:13:26.020Z,3.40
2018-08-28T20:15:54.554Z,3.73
2018-08-28T20:18:23.891Z,4.00
2018-08-28T20:20:52.550Z,4.10
2018-08-28T20:23:21.360Z,4.20
2018-08-28T20:25:49.882Z,4.57
2018-08-28T20:28:18.459Z,4.53
2018-08-28T20:30:46.998Z,4.90
2018-08-28T20:33:15.753Z,4.10
2018-08-28T20:35:44.861Z,3.90
2018-08-28T20:38:13.551Z,5.00
2018-08-28T20:40:42.138Z,4.40
2018-08-28T20:43:10.642Z,4.93
2018-08-28T20:45:39.793Z,4.80
2018-08-28T20:48:08.366Z,4.80
2018-08-28T20:50:36.921Z,4.90
2018-08-28T20:53:06.149Z,5.07
2018-08-28T20:55:34.772Z,5.03
2018-08-28T20:58:03.644Z,4.90
2018-08-28T21:00:35.516Z,4.27
2018-08-28T21:03:05.281Z,5.03
2018-08-28T21:05:33.840Z,5.00
2018-08-28T21:08:02.796Z,4.70
2018-08-28T21:10:31.790Z,4.50
2018-08-28T21:13:00.634Z,4.57
2018-08-28T21:15:29.170Z,4.70
2018-08-28T21:17:57.698Z,4.10
2018-08-28T21:20:26.236Z,5.30
2018-08-28T21:22:54.805Z,5.23
2018-08-28T21:25:23.359Z,4.83
2018-08-28T21:27:52.010Z,5.43
2018-08-28T21:30:20.497Z,5.40
2018-08-28T21:32:49.042Z,5.20
2018-08-28T21:35:17.971Z,5.80
2018-08-28T21:37:46.858Z,5.97
2018-08-28T21:40:15.414Z,5.53
2018-08-28T21:42:44.149Z,5.77
2018-08-28T21:45:12.689Z,6.30
2018-08-28T21:47:41.234Z,6.60
2018-08-28T21:50:09.846Z,5.40
2018-08-28T21:52:38.358Z,6.00
2018-08-28T21:55:06.893Z,6.83
2018-08-28T21:57:35.449Z,7.67
2018-08-28T22:00:04.584Z,7.50
2018-08-28T22:02:33.123Z,7.23
2018-08-28T22:05:01.687Z,7.30
2018-08-28T22:07:35.495Z,6.73
2018-08-28T22:10:04.198Z,6.73
2018-08-28T22:12:32.782Z,8.17
2018-08-28T22:15:01.513Z,7.60
2018-08-28T22:17:30.153Z,8.10
2018-08-28T22:20:00.190Z,7.00
2018-08-28T22:22:28.795Z,7.90
2018-08-28T22:24:57.316Z,7.30
2018-08-28T22:27:25.826Z,7.23
2018-08-28T22:29:54.610Z,7.77
2018-08-28T22:32:23.349Z,7.87
2018-08-28T22:34:52.607Z,9.27
2018-08-28T22:37:21.576Z,8.93
2018-08-28T22:39:50.252Z,9.60
2018-08-28T22:42:18.790Z,9.30
2018-08-28T22:44:47.525Z,9.80
2018-08-28T22:47:16.152Z,9.57
2018-08-28T22:49:44.712Z,11.10
2018-08-28T22:52:13.254Z,10.73
2018-08-28T22:54:42.173Z,10.27
2018-08-28T22:57:10.778Z,11.77
2018-08-28T22:59:39.311Z,12.47
2018-08-28T23:02:08.154Z,11.03
2018-08-28T23:04:36.748Z,11.93
2018-08-28T23:07:05.488Z,11.70
2018-08-28T23:09:34.210Z,12.70
2018-08-28T23:12:03.202Z,13.27
2018-08-28T23:14:31.873Z,11.90
2018-08-28T23:17:00.693Z,12.13
2018-08-28T23:19:29.514Z,12.07
2018-08-28T23:21:58.052Z,12.97
2018-08-28T23:24:27.230Z,12.60
2018-08-28T23:26:56.053Z,13.10
2018-08-28T23:29:24.723Z,12.40
2018-08-28T23:31:53.249Z,13.60
2018-08-28T23:34:21.931Z,12.80
2018-08-28T23:36:50.425Z,14.13
2018-08-28T23:39:19.285Z,13.53
2018-08-28T23:41:48.199Z,14.53
2018-08-28T23:44:17.198Z,14.47
2018-08-28T23:46:46.071Z,13.00
2018-08-28T23:49:15.022Z,13.50
2018-08-28T23:51:43.592Z,15.97
2018-08-28T23:54:12.202Z,14.90
2018-08-28T23:56:40.740Z,15.57
2018-08-28T23:59:09.283Z,14.43
